sensor_id;sensor_type;location;lat;lon;timestamp;P1;durP1;ratioP1;P2;durP2;ratioP2
9218;SDS011;4644;48.858;9.184;2023-02-01T00:02:28;2.20;;;2.00;;
9218;SDS011;4644;48.858;9.184;2023-02-01T00:04:55;2.97;;;2.10;;
9218;SDS011;4644;48.858;9.184;2023-02-01T00:07:22;2.60;;;2.10;;
9218;SDS011;4644;48.858;9.184;2023-02-01T00:09:49;2.13;;;1.93;;
9218;SDS011;4644;48.858;9.184;2023-02-01T00:12:16;2.30;;;2.10;;
9218;SDS011;4644;48.858;9.184;2023-02-01T00:14:46;2.40;;;2.10;;
9218;SDS011;4644;48.858;9.184;2023-02-01T00:17:13;3.90;;;2.27;;
9218;SDS011;4644;48.858;9.184;2023-02-01T00:19:42;4.63;;;2.27;;
9218;SDS011;4644;48.858;9.184;2023-02-01T00:22:09;2.80;;;2.37;;
9218;SDS011;4644;48.858;9.184;2023-02-01T00:24:36;3.20;;;2.03;;
9218;SDS011;4644;48.858;9.184;2023-02-01T00:27:03;3.70;;;2.10;;
9218;SDS011;4644;48.858;9.184;2023-02-01T00:29:30;4.13;;;3.10;;
9218;SDS011;4644;48.858;9.184;2023-02-01T00:31:57;2.40;;;2.20;;
9218;SDS011;4644;48.858;9.184;2023-02-01T00:34:25;2.27;;;1.80;;
9218;SDS011;4644;48.858;9.184;2023-02-01T00:36:53;1.80;;;1.70;;
9218;SDS011;4644;48.858;9.184;2023-02-01T00:39:20;2.00;;;1.80;;
9218;SDS011;4644;48.858;9.184;2023-02-01T00:41:47;2.27;;;1.70;;
9218;SDS011;4644;48.858;9.184;2023-02-01T00:44:14;2.50;;;1.93;;
9218;SDS011;4644;48.858;9.184;2023-02-01T00:46:41;1.80;;;1.70;;
9218;SDS011;4644;48.858;9.184;2023-02-01T00:49:08;2.13;;;1.93;;
9218;SDS011;4644;48.858;9.184;2023-02-01T00:51:35;2.00;;;1.80;;
9218;SDS011;4644;48.858;9.184;2023-02-01T00:54:04;2.17;;;1.90;;
9218;SDS011;4644;48.858;9.184;2023-02-01T00:56:31;1.80;;;1.70;;
9218;SDS011;4644;48.858;9.184;2023-02-01T00:58:58;2.27;;;2.07;;
9218;SDS011;4644;48.858;9.184;2023-02-01T01:01:25;2.37;;;2.17;;
9218;SDS011;4644;48.858;9.184;2023-02-01T01:03:54;2.97;;;2.27;;
9218;SDS011;4644;48.858;9.184;2023-02-01T01:06:23;2.30;;;2.03;;
9218;SDS011;4644;48.858;9.184;2023-02-01T01:08:51;2.77;;;1.93;;
9218;SDS011;4644;48.858;9.184;2023-02-01T01:11:21;1.80;;;1.70;;
9218;SDS011;4644;48.858;9.184;2023-02-01T01:13:50;1.90;;;1.80;;
9218;SDS011;4644;48.858;9.184;2023-02-01T01:16:18;2.27;;;2.07;;
9218;SDS011;4644;48.858;9.184;2023-02-01T01:18:46;1.87;;;1.77;;
9218;SDS011;4644;48.858;9.184;2023-02-01T01:21:13;1.63;;;1.53;;
9218;SDS011;4644;48.858;9.184;2023-02-01T01:23:42;2.90;;;1.97;;
9218;SDS011;4644;48.858;9.184;2023-02-01T01:26:10;1.60;;;1.50;;
9218;SDS011;4644;48.858;9.184;2023-02-01T01:28:41;1.97;;;1.73;;
9218;SDS011;4644;48.858;9.184;2023-02-01T01:31:08;1.63;;;1.53;;
9218;SDS011;4644;48.858;9.184;2023-02-01T01:33:36;1.90;;;1.60;;
9218;SDS011;4644;48.858;9.184;2023-02-01T01:36:04;1.50;;;1.40;;
9218;SDS011;4644;48.858;9.184;2023-02-01T01:38:31;2.20;;;1.73;;
9218;SDS011;4644;48.858;9.184;2023-02-01T01:40:58;1.13;;;1.13;;
9218;SDS011;4644;48.858;9.184;2023-02-01T01:46:23;1.60;;;1.50;;
9218;SDS011;4644;48.858;9.184;2023-02-01T01:48:53;1.40;;;1.30;;
9218;SDS011;4644;48.858;9.184;2023-02-01T01:51:26;2.30;;;2.17;;
9218;SDS011;4644;48.858;9.184;2023-02-01T01:53:58;2.80;;;1.40;;
9218;SDS011;4644;48.858;9.184;2023-02-01T01:56:28;1.70;;;1.50;;
9218;SDS011;4644;48.858;9.184;2023-02-01T01:58:58;1.07;;;1.07;;
9218;SDS011;4644;48.858;9.184;2023-02-01T02:01:26;1.70;;;1.50;;
9218;SDS011;4644;48.858;9.184;2023-02-01T02:03:54;1.47;;;1.37;;
9218;SDS011;4644;48.858;9.184;2023-02-01T02:06:26;1.90;;;1.47;;
9218;SDS011;4644;48.858;9.184;2023-02-01T02:09:03;1.30;;;1.20;;
9218;SDS011;4644;48.858;9.184;2023-02-01T02:11:30;1.27;;;1.20;;
9218;SDS011;4644;48.858;9.184;2023-02-01T02:13:59;1.53;;;1.43;;
9218;SDS011;4644;48.858;9.184;2023-02-01T02:16:31;1.47;;;1.37;;
9218;SDS011;4644;48.858;9.184;2023-02-01T02:19:25;1.50;;;1.40;;
9218;SDS011;4644;48.858;9.184;2023-02-01T02:22:21;1.70;;;1.60;;
9218;SDS011;4644;48.858;9.184;2023-02-01T02:25:24;1.40;;;1.30;;
9218;SDS011;4644;48.858;9.184;2023-02-01T02:28:07;2.43;;;1.43;;
9218;SDS011;4644;48.858;9.184;2023-02-01T02:31:05;1.30;;;1.20;;
9218;SDS011;4644;48.858;9.184;2023-02-01T02:34:02;1.57;;;1.47;;
9218;SDS011;4644;48.858;9.184;2023-02-01T02:36:39;1.27;;;1.17;;
9218;SDS011;4644;48.858;9.184;2023-02-01T02:39:14;1.20;;;1.20;;
9218;SDS011;4644;48.858;9.184;2023-02-01T02:41:48;1.50;;;1.40;;
9218;SDS011;4644;48.858;9.184;2023-02-01T02:44:45;1.70;;;1.60;;
9218;SDS011;4644;48.858;9.184;2023-02-01T02:47:33;1.77;;;1.67;;
9218;SDS011;4644;48.858;9.184;2023-02-01T02:50:08;1.43;;;1.33;;
9218;SDS011;4644;48.858;9.184;2023-02-01T02:53:09;1.73;;;1.30;;
9218;SDS011;4644;48.858;9.184;2023-02-01T02:55:57;1.57;;;1.30;;
9218;SDS011;4644;48.858;9.184;2023-02-01T02:58:43;1.50;;;1.40;;
9218;SDS011;4644;48.858;9.184;2023-02-01T03:01:30;1.40;;;1.27;;
9218;SDS011;4644;48.858;9.184;2023-02-01T03:04:16;1.37;;;1.17;;
9218;SDS011;4644;48.858;9.184;2023-02-01T03:06:46;1.93;;;1.60;;
9218;SDS011;4644;48.858;9.184;2023-02-01T03:09:14;1.67;;;1.33;;
9218;SDS011;4644;48.858;9.184;2023-02-01T03:11:45;1.67;;;1.57;;
9218;SDS011;4644;48.858;9.184;2023-02-01T03:14:32;2.07;;;1.87;;
9218;SDS011;4644;48.858;9.184;2023-02-01T03:17:02;1.60;;;1.50;;
9218;SDS011;4644;48.858;9.184;2023-02-01T03:19:34;2.40;;;1.47;;
9218;SDS011;4644;48.858;9.184;2023-02-01T03:22:10;1.90;;;1.80;;
9218;SDS011;4644;48.858;9.184;2023-02-01T03:24:42;2.43;;;1.80;;
9218;SDS011;4644;48.858;9.184;2023-02-01T03:27:13;1.80;;;1.70;;
9218;SDS011;4644;48.858;9.184;2023-02-01T03:29:44;1.60;;;1.50;;
9218;SDS011;4644;48.858;9.184;2023-02-01T03:32:14;2.50;;;1.80;;
9218;SDS011;4644;48.858;9.184;2023-02-01T03:34:42;1.50;;;1.40;;
9218;SDS011;4644;48.858;9.184;2023-02-01T03:37:11;2.00;;;1.90;;
9218;SDS011;4644;48.858;9.184;2023-02-01T03:39:44;1.70;;;1.60;;
9218;SDS011;4644;48.858;9.184;2023-02-01T03:42:16;1.67;;;1.57;;
9218;SDS011;4644;48.858;9.184;2023-02-01T03:44:49;2.07;;;1.87;;
9218;SDS011;4644;48.858;9.184;2023-02-01T03:47:20;1.67;;;1.50;;
9218;SDS011;4644;48.858;9.184;2023-02-01T03:49:50;1.60;;;1.50;;
9218;SDS011;4644;48.858;9.184;2023-02-01T03:52:25;1.60;;;1.50;;
9218;SDS011;4644;48.858;9.184;2023-02-01T03:54:55;1.70;;;1.40;;
9218;SDS011;4644;48.858;9.184;2023-02-01T03:57:25;3.10;;;1.77;;
9218;SDS011;4644;48.858;9.184;2023-02-01T03:59:58;1.80;;;1.53;;
9218;SDS011;4644;48.858;9.184;2023-02-01T04:02:32;1.63;;;1.53;;
9218;SDS011;4644;48.858;9.184;2023-02-01T04:04:59;2.10;;;1.57;;
9218;SDS011;4644;48.858;9.184;2023-02-01T04:07:28;2.20;;;1.27;;
9218;SDS011;4644;48.858;9.184;2023-02-01T04:09:55;1.53;;;1.43;;
9218;SDS011;4644;48.858;9.184;2023-02-01T04:12:23;2.33;;;1.50;;
9218;SDS011;4644;48.858;9.184;2023-02-01T04:14:50;1.30;;;1.20;;
9218;SDS011;4644;48.858;9.184;2023-02-01T04:17:17;1.60;;;1.50;;
9218;SDS011;4644;48.858;9.184;2023-02-01T04:19:44;1.90;;;1.70;;
9218;SDS011;4644;48.858;9.184;2023-02-01T04:22:11;1.50;;;1.40;;
9218;SDS011;4644;48.858;9.184;2023-02-01T04:24:40;2.43;;;1.33;;
9218;SDS011;4644;48.858;9.184;2023-02-01T04:27:07;1.57;;;1.47;;
9218;SDS011;4644;48.858;9.184;2023-02-01T04:29:34;1.47;;;1.37;;
9218;SDS011;4644;48.858;9.184;2023-02-01T04:32:01;1.77;;;1.63;;
9218;SDS011;4644;48.858;9.184;2023-02-01T04:34:28;1.57;;;1.47;;
9218;SDS011;4644;48.858;9.184;2023-02-01T04:36:55;1.87;;;1.57;;
9218;SDS011;4644;48.858;9.184;2023-02-01T04:39:22;1.80;;;1.60;;
9218;SDS011;4644;48.858;9.184;2023-02-01T04:41:51;1.40;;;1.30;;
9218;SDS011;4644;48.858;9.184;2023-02-01T04:44:18;1.60;;;1.50;;
9218;SDS011;4644;48.858;9.184;2023-02-01T04:46:45;2.17;;;1.50;;
9218;SDS011;4644;48.858;9.184;2023-02-01T04:49:13;1.40;;;1.30;;
9218;SDS011;4644;48.858;9.184;2023-02-01T04:51:41;1.53;;;1.43;;
9218;SDS011;4644;48.858;9.184;2023-02-01T04:54:08;1.47;;;1.37;;
9218;SDS011;4644;48.858;9.184;2023-02-01T04:56:36;1.23;;;1.20;;
9218;SDS011;4644;48.858;9.184;2023-02-01T04:59:06;1.67;;;1.53;;
9218;SDS011;4644;48.858;9.184;2023-02-01T05:01:33;1.83;;;1.60;;
9218;SDS011;4644;48.858;9.184;2023-02-01T05:04:00;2.10;;;1.43;;
9218;SDS011;4644;48.858;9.184;2023-02-01T05:06:27;1.63;;;1.53;;
9218;SDS011;4644;48.858;9.184;2023-02-01T05:08:54;1.80;;;1.50;;
9218;SDS011;4644;48.858;9.184;2023-02-01T05:11:21;1.80;;;1.70;;
9218;SDS011;4644;48.858;9.184;2023-02-01T05:14:06;1.80;;;1.70;;
9218;SDS011;4644;48.858;9.184;2023-02-01T05:16:34;1.97;;;1.60;;
9218;SDS011;4644;48.858;9.184;2023-02-01T05:19:01;1.63;;;1.53;;
9218;SDS011;4644;48.858;9.184;2023-02-01T05:21:28;1.87;;;1.50;;
9218;SDS011;4644;48.858;9.184;2023-02-01T05:23:55;2.67;;;1.53;;
9218;SDS011;4644;48.858;9.184;2023-02-01T05:26:38;1.93;;;1.70;;
9218;SDS011;4644;48.858;9.184;2023-02-01T05:29:07;1.87;;;1.60;;
9218;SDS011;4644;48.858;9.184;2023-02-01T05:31:35;1.53;;;1.43;;
9218;SDS011;4644;48.858;9.184;2023-02-01T05:34:03;1.87;;;1.30;;
9218;SDS011;4644;48.858;9.184;2023-02-01T05:36:30;1.50;;;1.40;;
9218;SDS011;4644;48.858;9.184;2023-02-01T05:38:58;1.60;;;1.50;;
9218;SDS011;4644;48.858;9.184;2023-02-01T05:41:25;1.93;;;1.83;;
9218;SDS011;4644;48.858;9.184;2023-02-01T05:43:52;1.50;;;1.40;;
9218;SDS011;4644;48.858;9.184;2023-02-01T05:46:21;1.50;;;1.40;;
9218;SDS011;4644;48.858;9.184;2023-02-01T05:48:49;2.43;;;1.73;;
9218;SDS011;4644;48.858;9.184;2023-02-01T05:51:16;1.60;;;1.30;;
9218;SDS011;4644;48.858;9.184;2023-02-01T05:53:43;2.70;;;1.57;;
9218;SDS011;4644;48.858;9.184;2023-02-01T05:56:10;1.70;;;1.60;;
9218;SDS011;4644;48.858;9.184;2023-02-01T05:58:37;1.70;;;1.50;;
9218;SDS011;4644;48.858;9.184;2023-02-01T06:01:04;2.60;;;1.47;;
9218;SDS011;4644;48.858;9.184;2023-02-01T06:03:36;1.40;;;1.30;;
9218;SDS011;4644;48.858;9.184;2023-02-01T06:06:03;1.30;;;1.20;;
9218;SDS011;4644;48.858;9.184;2023-02-01T06:08:31;3.47;;;1.10;;
9218;SDS011;4644;48.858;9.184;2023-02-01T06:10:58;1.87;;;1.33;;
9218;SDS011;4644;48.858;9.184;2023-02-01T06:13:26;1.43;;;1.30;;
9218;SDS011;4644;48.858;9.184;2023-02-01T06:15:53;1.80;;;1.50;;
9218;SDS011;4644;48.858;9.184;2023-02-01T06:18:22;2.13;;;1.53;;
9218;SDS011;4644;48.858;9.184;2023-02-01T06:20:53;2.80;;;1.53;;
9218;SDS011;4644;48.858;9.184;2023-02-01T06:23:22;1.53;;;1.43;;
9218;SDS011;4644;48.858;9.184;2023-02-01T06:25:50;1.57;;;1.40;;
9218;SDS011;4644;48.858;9.184;2023-02-01T06:28:17;3.00;;;1.37;;
9218;SDS011;4644;48.858;9.184;2023-02-01T06:30:45;2.47;;;1.70;;
9218;SDS011;4644;48.858;9.184;2023-02-01T06:33:12;2.03;;;1.70;;
9218;SDS011;4644;48.858;9.184;2023-02-01T06:35:40;2.13;;;1.70;;
9218;SDS011;4644;48.858;9.184;2023-02-01T06:38:10;2.93;;;1.73;;
9218;SDS011;4644;48.858;9.184;2023-02-01T06:40:38;1.77;;;1.67;;
9218;SDS011;4644;48.858;9.184;2023-02-01T06:43:06;2.20;;;1.80;;
9218;SDS011;4644;48.858;9.184;2023-02-01T06:45:35;2.60;;;2.00;;
9218;SDS011;4644;48.858;9.184;2023-02-01T06:48:02;3.97;;;1.97;;
9218;SDS011;4644;48.858;9.184;2023-02-01T06:50:29;2.47;;;1.93;;
9218;SDS011;4644;48.858;9.184;2023-02-01T06:52:56;1.83;;;1.73;;
9218;SDS011;4644;48.858;9.184;2023-02-01T06:55:25;2.30;;;2.10;;
9218;SDS011;4644;48.858;9.184;2023-02-01T06:57:55;2.20;;;2.00;;
9218;SDS011;4644;48.858;9.184;2023-02-01T07:00:22;3.50;;;2.57;;
9218;SDS011;4644;48.858;9.184;2023-02-01T07:02:50;5.70;;;2.40;;
9218;SDS011;4644;48.858;9.184;2023-02-01T07:05:17;4.97;;;3.00;;
9218;SDS011;4644;48.858;9.184;2023-02-01T07:07:44;3.37;;;2.40;;
9218;SDS011;4644;48.858;9.184;2023-02-01T07:10:11;2.43;;;2.00;;
9218;SDS011;4644;48.858;9.184;2023-02-01T07:12:40;4.10;;;2.60;;
9218;SDS011;4644;48.858;9.184;2023-02-01T07:15:08;3.90;;;2.43;;
9218;SDS011;4644;48.858;9.184;2023-02-01T07:17:35;4.60;;;2.50;;
9218;SDS011;4644;48.858;9.184;2023-02-01T07:20:03;7.80;;;2.83;;
9218;SDS011;4644;48.858;9.184;2023-02-01T07:22:30;3.63;;;2.53;;
9218;SDS011;4644;48.858;9.184;2023-02-01T07:24:57;4.57;;;2.60;;
9218;SDS011;4644;48.858;9.184;2023-02-01T07:27:24;8.23;;;2.53;;
9218;SDS011;4644;48.858;9.184;2023-02-01T07:29:52;5.20;;;2.30;;
9218;SDS011;4644;48.858;9.184;2023-02-01T07:32:20;4.93;;;2.50;;
9218;SDS011;4644;48.858;9.184;2023-02-01T07:34:47;5.03;;;2.47;;
9218;SDS011;4644;48.858;9.184;2023-02-01T07:37:14;7.00;;;3.20;;
9218;SDS011;4644;48.858;9.184;2023-02-01T07:39:41;5.73;;;2.83;;
9218;SDS011;4644;48.858;9.184;2023-02-01T07:42:09;4.13;;;2.40;;
9218;SDS011;4644;48.858;9.184;2023-02-01T07:44:36;5.20;;;2.60;;
9218;SDS011;4644;48.858;9.184;2023-02-01T07:47:04;5.10;;;2.70;;
9218;SDS011;4644;48.858;9.184;2023-02-01T07:49:31;5.27;;;2.70;;
9218;SDS011;4644;48.858;9.184;2023-02-01T07:51:58;5.47;;;2.63;;
9218;SDS011;4644;48.858;9.184;2023-02-01T07:54:24;5.50;;;3.03;;
9218;SDS011;4644;48.858;9.184;2023-02-01T07:56:51;10.03;;;2.90;;
9218;SDS011;4644;48.858;9.184;2023-02-01T07:59:21;8.40;;;2.77;;
9218;SDS011;4644;48.858;9.184;2023-02-01T08:01:48;6.23;;;2.40;;
9218;SDS011;4644;48.858;9.184;2023-02-01T08:04:15;5.43;;;2.63;;
9218;SDS011;4644;48.858;9.184;2023-02-01T08:06:42;8.57;;;3.30;;
9218;SDS011;4644;48.858;9.184;2023-02-01T08:09:10;5.97;;;2.93;;
9218;SDS011;4644;48.858;9.184;2023-02-01T08:11:37;5.23;;;2.73;;
9218;SDS011;4644;48.858;9.184;2023-02-01T08:14:04;6.70;;;2.70;;
9218;SDS011;4644;48.858;9.184;2023-02-01T08:16:31;11.80;;;2.83;;
9218;SDS011;4644;48.858;9.184;2023-02-01T08:19:00;7.00;;;2.60;;
9218;SDS011;4644;48.858;9.184;2023-02-01T08:21:29;6.53;;;2.40;;
9218;SDS011;4644;48.858;9.184;2023-02-01T08:24:02;6.60;;;2.70;;
9218;SDS011;4644;48.858;9.184;2023-02-01T08:26:30;7.73;;;2.70;;
9218;SDS011;4644;48.858;9.184;2023-02-01T08:29:01;9.47;;;2.97;;
9218;SDS011;4644;48.858;9.184;2023-02-01T08:31:29;10.43;;;2.80;;
9218;SDS011;4644;48.858;9.184;2023-02-01T08:33:58;10.30;;;2.83;;
9218;SDS011;4644;48.858;9.184;2023-02-01T08:36:27;6.73;;;3.10;;
9218;SDS011;4644;48.858;9.184;2023-02-01T08:39:03;7.27;;;2.10;;
9218;SDS011;4644;48.858;9.184;2023-02-01T08:41:35;5.73;;;2.77;;
9218;SDS011;4644;48.858;9.184;2023-02-01T08:44:02;8.23;;;2.57;;
9218;SDS011;4644;48.858;9.184;2023-02-01T08:46:29;7.57;;;2.67;;
9218;SDS011;4644;48.858;9.184;2023-02-01T08:48:56;7.90;;;2.30;;
9218;SDS011;4644;48.858;9.184;2023-02-01T08:51:23;6.03;;;2.23;;
9218;SDS011;4644;48.858;9.184;2023-02-01T08:53:51;7.37;;;2.87;;
9218;SDS011;4644;48.858;9.184;2023-02-01T08:56:18;5.00;;;2.40;;
9218;SDS011;4644;48.858;9.184;2023-02-01T08:58:46;7.97;;;2.80;;
9218;SDS011;4644;48.858;9.184;2023-02-01T09:01:14;8.83;;;3.17;;
9218;SDS011;4644;48.858;9.184;2023-02-01T09:03:42;9.07;;;2.43;;
9218;SDS011;4644;48.858;9.184;2023-02-01T09:06:09;4.67;;;2.40;;
9218;SDS011;4644;48.858;9.184;2023-02-01T09:08:38;6.30;;;2.23;;
9218;SDS011;4644;48.858;9.184;2023-02-01T09:11:07;10.73;;;3.30;;
9218;SDS011;4644;48.858;9.184;2023-02-01T09:13:36;6.30;;;2.40;;
9218;SDS011;4644;48.858;9.184;2023-02-01T09:16:03;11.43;;;2.53;;
9218;SDS011;4644;48.858;9.184;2023-02-01T09:18:31;4.60;;;2.07;;
9218;SDS011;4644;48.858;9.184;2023-02-01T09:20:58;5.90;;;2.57;;
9218;SDS011;4644;48.858;9.184;2023-02-01T09:23:25;10.03;;;3.13;;
9218;SDS011;4644;48.858;9.184;2023-02-01T09:25:54;4.80;;;2.20;;
9218;SDS011;4644;48.858;9.184;2023-02-01T09:28:25;9.13;;;2.83;;
9218;SDS011;4644;48.858;9.184;2023-02-01T09:30:55;5.47;;;2.50;;
9218;SDS011;4644;48.858;9.184;2023-02-01T09:33:25;7.10;;;2.40;;
9218;SDS011;4644;48.858;9.184;2023-02-01T09:35:56;5.30;;;2.57;;
9218;SDS011;4644;48.858;9.184;2023-02-01T09:38:25;11.97;;;2.67;;
9218;SDS011;4644;48.858;9.184;2023-02-01T09:40:56;10.67;;;2.77;;
9218;SDS011;4644;48.858;9.184;2023-02-01T09:43:29;5.53;;;2.10;;
9218;SDS011;4644;48.858;9.184;2023-02-01T09:46:08;8.07;;;2.83;;
9218;SDS011;4644;48.858;9.184;2023-02-01T09:48:44;10.33;;;2.97;;
9218;SDS011;4644;48.858;9.184;2023-02-01T09:51:13;5.07;;;1.90;;
9218;SDS011;4644;48.858;9.184;2023-02-01T09:53:47;5.63;;;2.67;;
9218;SDS011;4644;48.858;9.184;2023-02-01T09:56:23;8.03;;;2.53;;
9218;SDS011;4644;48.858;9.184;2023-02-01T09:58:56;3.63;;;1.93;;
9218;SDS011;4644;48.858;9.184;2023-02-01T10:01:27;9.00;;;2.63;;
9218;SDS011;4644;48.858;9.184;2023-02-01T10:03:56;8.83;;;2.60;;
9218;SDS011;4644;48.858;9.184;2023-02-01T10:06:33;8.17;;;2.47;;
9218;SDS011;4644;48.858;9.184;2023-02-01T10:09:14;6.37;;;2.00;;
9218;SDS011;4644;48.858;9.184;2023-02-01T10:12:12;7.07;;;2.40;;
9218;SDS011;4644;48.858;9.184;2023-02-01T10:15:05;10.37;;;2.83;;
9218;SDS011;4644;48.858;9.184;2023-02-01T10:17:49;5.83;;;2.53;;
9218;SDS011;4644;48.858;9.184;2023-02-01T10:20:30;7.47;;;2.60;;
9218;SDS011;4644;48.858;9.184;2023-02-01T10:23:11;5.47;;;2.43;;
9218;SDS011;4644;48.858;9.184;2023-02-01T10:25:53;8.67;;;2.60;;
9218;SDS011;4644;48.858;9.184;2023-02-01T10:28:21;4.97;;;2.17;;
9218;SDS011;4644;48.858;9.184;2023-02-01T10:30:56;5.33;;;2.23;;
9218;SDS011;4644;48.858;9.184;2023-02-01T10:33:25;5.63;;;2.20;;
9218;SDS011;4644;48.858;9.184;2023-02-01T10:35:58;9.10;;;2.13;;
9218;SDS011;4644;48.858;9.184;2023-02-01T10:38:30;6.47;;;2.77;;
9218;SDS011;4644;48.858;9.184;2023-02-01T10:41:00;3.00;;;1.97;;
9218;SDS011;4644;48.858;9.184;2023-02-01T10:43:32;10.77;;;2.43;;
9218;SDS011;4644;48.858;9.184;2023-02-01T10:46:00;7.80;;;2.50;;
9218;SDS011;4644;48.858;9.184;2023-02-01T10:48:30;9.43;;;2.33;;
9218;SDS011;4644;48.858;9.184;2023-02-01T10:50:59;8.63;;;3.53;;
9218;SDS011;4644;48.858;9.184;2023-02-01T10:53:33;12.30;;;2.50;;
9218;SDS011;4644;48.858;9.184;2023-02-01T10:56:07;16.57;;;2.40;;
9218;SDS011;4644;48.858;9.184;2023-02-01T10:58:34;8.20;;;2.23;;
9218;SDS011;4644;48.858;9.184;2023-02-01T11:01:10;6.60;;;2.30;;
9218;SDS011;4644;48.858;9.184;2023-02-01T11:03:44;6.57;;;2.13;;
9218;SDS011;4644;48.858;9.184;2023-02-01T11:06:19;8.50;;;2.77;;
9218;SDS011;4644;48.858;9.184;2023-02-01T11:08:52;10.23;;;2.70;;
9218;SDS011;4644;48.858;9.184;2023-02-01T11:11:21;11.77;;;2.70;;
9218;SDS011;4644;48.858;9.184;2023-02-01T11:13:52;8.03;;;2.20;;
9218;SDS011;4644;48.858;9.184;2023-02-01T11:16:28;10.37;;;2.30;;
9218;SDS011;4644;48.858;9.184;2023-02-01T11:19:01;6.00;;;1.80;;
9218;SDS011;4644;48.858;9.184;2023-02-01T11:21:28;8.73;;;2.47;;
9218;SDS011;4644;48.858;9.184;2023-02-01T11:23:55;8.90;;;2.50;;
9218;SDS011;4644;48.858;9.184;2023-02-01T11:26:27;3.03;;;1.73;;
9218;SDS011;4644;48.858;9.184;2023-02-01T11:28:57;8.57;;;2.47;;
9218;SDS011;4644;48.858;9.184;2023-02-01T11:31:28;9.07;;;2.50;;
9218;SDS011;4644;48.858;9.184;2023-02-01T11:33:57;6.00;;;2.40;;
9218;SDS011;4644;48.858;9.184;2023-02-01T11:36:27;6.67;;;2.20;;
9218;SDS011;4644;48.858;9.184;2023-02-01T11:39:08;6.83;;;2.03;;
9218;SDS011;4644;48.858;9.184;2023-02-01T11:41:55;8.10;;;2.20;;
9218;SDS011;4644;48.858;9.184;2023-02-01T11:44:26;9.07;;;2.60;;
9218;SDS011;4644;48.858;9.184;2023-02-01T11:49:51;10.17;;;2.30;;
9218;SDS011;4644;48.858;9.184;2023-02-01T11:58:29;9.13;;;2.40;;
9218;SDS011;4644;48.858;9.184;2023-02-01T12:01:26;7.43;;;2.10;;
9218;SDS011;4644;48.858;9.184;2023-02-01T12:04:21;6.57;;;1.70;;
9218;SDS011;4644;48.858;9.184;2023-02-01T12:07:20;6.43;;;2.27;;
9218;SDS011;4644;48.858;9.184;2023-02-01T12:09:57;7.73;;;2.03;;
9218;SDS011;4644;48.858;9.184;2023-02-01T12:12:33;10.00;;;2.20;;
9218;SDS011;4644;48.858;9.184;2023-02-01T12:15:15;6.30;;;2.30;;
9218;SDS011;4644;48.858;9.184;2023-02-01T12:21:01;6.13;;;2.73;;
9218;SDS011;4644;48.858;9.184;2023-02-01T12:26:38;6.47;;;2.10;;
9218;SDS011;4644;48.858;9.184;2023-02-01T12:29:18;6.83;;;2.40;;
9218;SDS011;4644;48.858;9.184;2023-02-01T12:31:58;7.27;;;2.07;;
9218;SDS011;4644;48.858;9.184;2023-02-01T12:34:53;7.53;;;1.80;;
9218;SDS011;4644;48.858;9.184;2023-02-01T12:37:48;6.77;;;2.13;;
9218;SDS011;4644;48.858;9.184;2023-02-01T12:40:27;9.57;;;2.20;;
9218;SDS011;4644;48.858;9.184;2023-02-01T12:43:03;8.53;;;2.40;;
9218;SDS011;4644;48.858;9.184;2023-02-01T12:45:36;5.87;;;2.13;;
9218;SDS011;4644;48.858;9.184;2023-02-01T12:48:21;8.97;;;2.57;;
9218;SDS011;4644;48.858;9.184;2023-02-01T12:50:56;4.87;;;1.97;;
9218;SDS011;4644;48.858;9.184;2023-02-01T12:53:33;4.23;;;1.93;;
9218;SDS011;4644;48.858;9.184;2023-02-01T12:56:10;9.87;;;2.47;;
9218;SDS011;4644;48.858;9.184;2023-02-01T12:58:43;9.47;;;2.50;;
9218;SDS011;4644;48.858;9.184;2023-02-01T13:01:14;6.33;;;1.70;;
9218;SDS011;4644;48.858;9.184;2023-02-01T13:03:49;7.47;;;2.40;;
9218;SDS011;4644;48.858;9.184;2023-02-01T13:06:21;7.30;;;2.30;;
9218;SDS011;4644;48.858;9.184;2023-02-01T13:08:54;8.53;;;2.67;;
9218;SDS011;4644;48.858;9.184;2023-02-01T13:11:29;6.10;;;2.47;;
9218;SDS011;4644;48.858;9.184;2023-02-01T13:14:00;5.77;;;2.23;;
9218;SDS011;4644;48.858;9.184;2023-02-01T13:16:32;6.03;;;2.17;;
9218;SDS011;4644;48.858;9.184;2023-02-01T13:19:05;6.53;;;2.10;;
9218;SDS011;4644;48.858;9.184;2023-02-01T13:21:37;9.13;;;2.10;;
9218;SDS011;4644;48.858;9.184;2023-02-01T13:24:24;10.03;;;2.27;;
9218;SDS011;4644;48.858;9.184;2023-02-01T13:26:59;6.47;;;2.50;;
9218;SDS011;4644;48.858;9.184;2023-02-01T13:29:28;8.20;;;2.40;;
9218;SDS011;4644;48.858;9.184;2023-02-01T13:35:03;6.33;;;2.53;;
9218;SDS011;4644;48.858;9.184;2023-02-01T13:37:55;4.07;;;1.77;;
9218;SDS011;4644;48.858;9.184;2023-02-01T13:40:39;12.87;;;3.07;;
9218;SDS011;4644;48.858;9.184;2023-02-01T13:43:11;10.77;;;2.47;;
9218;SDS011;4644;48.858;9.184;2023-02-01T13:45:43;5.43;;;2.50;;
9218;SDS011;4644;48.858;9.184;2023-02-01T13:48:18;7.83;;;2.13;;
9218;SDS011;4644;48.858;9.184;2023-02-01T13:50:52;6.00;;;2.30;;
9218;SDS011;4644;48.858;9.184;2023-02-01T13:53:23;10.17;;;2.30;;
9218;SDS011;4644;48.858;9.184;2023-02-01T13:55:57;5.73;;;2.00;;
9218;SDS011;4644;48.858;9.184;2023-02-01T13:58:30;11.83;;;2.30;;
9218;SDS011;4644;48.858;9.184;2023-02-01T14:07:15;6.63;;;2.00;;
9218;SDS011;4644;48.858;9.184;2023-02-01T14:09:50;5.73;;;1.83;;
9218;SDS011;4644;48.858;9.184;2023-02-01T14:17:59;5.57;;;2.00;;
9218;SDS011;4644;48.858;9.184;2023-02-01T14:23:17;6.47;;;2.30;;
9218;SDS011;4644;48.858;9.184;2023-02-01T14:25:59;7.67;;;2.47;;
9218;SDS011;4644;48.858;9.184;2023-02-01T14:31:42;9.53;;;2.00;;
9218;SDS011;4644;48.858;9.184;2023-02-01T14:34:15;4.90;;;2.10;;
9218;SDS011;4644;48.858;9.184;2023-02-01T14:36:46;7.20;;;2.10;;
9218;SDS011;4644;48.858;9.184;2023-02-01T14:39:26;7.47;;;2.00;;
9218;SDS011;4644;48.858;9.184;2023-02-01T14:42:18;7.33;;;2.30;;
9218;SDS011;4644;48.858;9.184;2023-02-01T14:44:50;5.67;;;1.90;;
9218;SDS011;4644;48.858;9.184;2023-02-01T14:50:15;7.83;;;1.90;;
9218;SDS011;4644;48.858;9.184;2023-02-01T14:53:15;7.17;;;2.13;;
9218;SDS011;4644;48.858;9.184;2023-02-01T14:55:47;10.83;;;2.33;;
9218;SDS011;4644;48.858;9.184;2023-02-01T14:58:19;7.27;;;2.23;;
9218;SDS011;4644;48.858;9.184;2023-02-01T15:01:00;7.53;;;2.30;;
9218;SDS011;4644;48.858;9.184;2023-02-01T15:03:43;10.63;;;2.37;;
9218;SDS011;4644;48.858;9.184;2023-02-01T15:06:20;12.27;;;2.60;;
9218;SDS011;4644;48.858;9.184;2023-02-01T15:08:52;6.87;;;2.00;;
9218;SDS011;4644;48.858;9.184;2023-02-01T15:11:25;5.67;;;2.43;;
9218;SDS011;4644;48.858;9.184;2023-02-01T15:13:52;13.97;;;2.33;;
9218;SDS011;4644;48.858;9.184;2023-02-01T15:16:23;4.83;;;1.93;;
9218;SDS011;4644;48.858;9.184;2023-02-01T15:19:07;5.20;;;1.80;;
9218;SDS011;4644;48.858;9.184;2023-02-01T15:21:42;4.77;;;1.60;;
9218;SDS011;4644;48.858;9.184;2023-02-01T15:24:13;5.43;;;1.80;;
9218;SDS011;4644;48.858;9.184;2023-02-01T15:26:45;7.10;;;2.00;;
9218;SDS011;4644;48.858;9.184;2023-02-01T15:29:12;10.57;;;2.50;;
9218;SDS011;4644;48.858;9.184;2023-02-01T15:31:42;5.77;;;2.20;;
9218;SDS011;4644;48.858;9.184;2023-02-01T15:34:10;12.87;;;4.03;;
9218;SDS011;4644;48.858;9.184;2023-02-01T15:36:38;7.60;;;1.87;;
9218;SDS011;4644;48.858;9.184;2023-02-01T15:39:19;11.23;;;1.97;;
9218;SDS011;4644;48.858;9.184;2023-02-01T15:41:51;12.50;;;2.07;;
9218;SDS011;4644;48.858;9.184;2023-02-01T15:44:33;7.97;;;2.27;;
9218;SDS011;4644;48.858;9.184;2023-02-01T15:47:07;6.07;;;2.00;;
9218;SDS011;4644;48.858;9.184;2023-02-01T15:49:41;6.27;;;2.20;;
9218;SDS011;4644;48.858;9.184;2023-02-01T15:52:15;9.53;;;2.80;;
9218;SDS011;4644;48.858;9.184;2023-02-01T15:54:49;10.23;;;2.60;;
9218;SDS011;4644;48.858;9.184;2023-02-01T15:57:19;6.23;;;2.20;;
9218;SDS011;4644;48.858;9.184;2023-02-01T15:59:48;7.77;;;2.33;;
9218;SDS011;4644;48.858;9.184;2023-02-01T16:02:26;7.03;;;2.40;;
9218;SDS011;4644;48.858;9.184;2023-02-01T16:04:56;4.50;;;1.90;;
9218;SDS011;4644;48.858;9.184;2023-02-01T16:07:25;5.23;;;2.13;;
9218;SDS011;4644;48.858;9.184;2023-02-01T16:09:56;4.83;;;2.10;;
9218;SDS011;4644;48.858;9.184;2023-02-01T16:12:27;7.00;;;2.40;;
9218;SDS011;4644;48.858;9.184;2023-02-01T16:15:00;8.63;;;2.97;;
9218;SDS011;4644;48.858;9.184;2023-02-01T16:17:28;6.83;;;2.10;;
9218;SDS011;4644;48.858;9.184;2023-02-01T16:19:55;4.00;;;1.70;;
9218;SDS011;4644;48.858;9.184;2023-02-01T16:22:22;10.47;;;2.10;;
9218;SDS011;4644;48.858;9.184;2023-02-01T16:24:49;6.33;;;1.97;;
9218;SDS011;4644;48.858;9.184;2023-02-01T16:27:18;9.50;;;2.47;;